Buffalo, MN (55313)

10:22 AM CST on December 28, 2014 (GMT -0600)
Buffalo Hills | Change Station
CLOSE
Current Station
Personal Weather Station
Location: Buffalo, MN
Elevation: 1004 ft
Nearby Weather Stations

Elev 1004 ft 45.18 °N, 93.87 °W | Updated 10 seconds ago

Scattered Clouds
Scattered Clouds
17.8 °F
Feels Like 13 °F
N
3.3
Wind Variable Wind from NNW
Gusts 5.8 mph

Today
High -- | Low -- °F
--% Chance of Precip.
Yesterday
High -- | Low -- °F
Precip. -- in
7:53 AM 4:40 PM
Waxing Crescent, 49% visible
Pressure 30.17 in
Visibility 7.0 miles
Clouds Scattered Clouds 11000 ft
Windchill 13 °F
Dew Point 17 °F
Humidity 96%
Rainfall 0.00 in
Snow Depth Not available.
UV 1 out of 12
Pollen .10 out of 12
Air Quality Not available.
Flu Activity Not available.
METAR KCFE 281615Z AUTO 00000KT 7SM SCT110 M10/M11 A3017 RMK AO2 T10961115

More Conditions Fewer Conditions

Pressure 30.17 in
Visibility 7.0 miles
Clouds Scattered Clouds 11000 ft
Windchill 13 °F
Dew Point 17 °F
Humidity 96%
Rainfall 0.00 in
Snow Depth Not available.
UV 1 out of 12
Pollen .10 out of 12
Air Quality Not available.
Flu Activity Not available.
METAR KCFE 281615Z AUTO 00000KT 7SM SCT110 M10/M11 A3017 RMK AO2 T10961115

More Conditions Fewer Conditions

10-Day Weather Forecast

Almanac

Astronomy

Dec. 28, 2014 Rise Set
Actual Time
Civil Twilight
Nautical Twilight
Astronomical Twilight
Moon
Length of Visible Light
Length of Day
Tomorrow will be .
, % of the Moon is Illuminated

Today's Extremes

State Highs State Lows

Community

WunderPhotos

Upload Photos

1,781,323 photos uploaded!

WunderBlogs® & News

Nearby

Air Quality

  Air Quality AQ Index Pollutant
Not available.

Snow Depth

Station Depth Elevation

Earthquake Activity

City Distance Mag. Time & Date
Minimum magnitude displayed is 2.5.

Coastal Water Temperatures

Place Temperature

Nearby Weather Stations